Time;durP1;ratioP1;P1;durP2;ratioP2;P2;SDS_P1;SDS_P2;PMS_P1;PMS_P2;Temp;Humidity;BMP_temperature;BMP_pressure;BME280_temperature;BME280_humidity;BME280_pressure;Samples;Min_cycle;Max_cycle;Signal;HPM_P1;HPM_P2
2023/12/06 00:02:02;;;;;;;23.10;4.00;;;24.80;66.30;;;;;;5005389;28;20050;-79
2023/12/06 00:04:30;;;;;;;20.80;3.80;;;24.80;66.00;;;;;;5008584;28;20046;-86
2023/12/06 00:06:57;;;;;;;19.05;3.65;;;24.80;66.30;;;;;;5021734;28;20017;-86
2023/12/06 00:09:25;;;;;;;14.45;3.40;;;24.80;66.50;;;;;;5026448;28;20056;-86
2023/12/06 00:11:52;;;;;;;19.02;3.85;;;24.80;66.60;;;;;;5028608;28;20053;-79
2023/12/06 00:14:20;;;;;;;19.98;3.38;;;24.90;66.40;;;;;;5020953;28;20032;-83
2023/12/06 00:16:47;;;;;;;21.00;3.53;;;25.00;66.60;;;;;;5020980;28;20036;-85
2023/12/06 00:19:14;;;;;;;23.92;3.83;;;25.00;66.10;;;;;;5018425;28;20376;-80
2023/12/06 00:21:42;;;;;;;18.88;3.65;;;25.00;64.80;;;;;;5016374;28;20037;-79
2023/12/06 00:24:09;;;;;;;15.23;3.38;;;24.90;65.30;;;;;;5015655;28;20145;-82
2023/12/06 00:26:39;;;;;;;14.90;3.28;;;24.90;65.10;;;;;;5011281;28;20022;-84
2023/12/06 00:29:07;;;;;;;20.17;3.80;;;24.90;65.00;;;;;;5014644;28;20037;-84
2023/12/06 00:31:34;;;;;;;18.63;3.33;;;25.00;64.70;;;;;;5014302;28;20127;-84
2023/12/06 00:34:02;;;;;;;18.17;3.70;;;25.00;64.80;;;;;;5014123;28;20037;-80
2023/12/06 00:36:29;;;;;;;15.05;3.72;;;25.10;64.90;;;;;;5014074;28;20444;-79
2023/12/06 00:38:57;;;;;;;17.08;3.72;;;25.20;64.60;;;;;;5013770;28;20116;-79
2023/12/06 00:41:24;;;;;;;19.77;3.38;;;25.20;64.00;;;;;;5014775;28;20488;-83
2023/12/06 00:43:53;;;;;;;21.67;3.63;;;25.30;63.60;;;;;;5014080;28;20038;-84
2023/12/06 00:46:24;;;;;;;16.17;3.63;;;25.30;64.10;;;;;;5012948;28;20453;-84
2023/12/06 00:48:52;;;;;;;17.77;3.75;;;25.40;63.70;;;;;;5013398;28;20558;-83
2023/12/06 00:51:19;;;;;;;12.73;3.67;;;25.40;63.20;;;;;;5004280;28;20089;-85
2023/12/06 00:53:47;;;;;;;17.00;4.32;;;25.50;62.90;;;;;;4994501;28;20437;-83
2023/12/06 00:56:16;;;;;;;14.23;3.33;;;25.40;62.60;;;;;;4994742;28;20034;-83
2023/12/06 00:58:44;;;;;;;14.90;3.47;;;25.50;63.30;;;;;;4994792;28;20516;-85
2023/12/06 01:01:12;;;;;;;19.30;3.35;;;25.60;63.60;;;;;;4993077;28;20026;-84
2023/12/06 01:03:42;;;;;;;21.15;3.80;;;25.70;63.30;;;;;;4994592;28;20560;-79
2023/12/06 01:06:10;;;;;;;16.83;3.65;;;25.70;62.60;;;;;;5005739;28;20041;-85
2023/12/06 01:08:38;;;;;;;18.77;3.67;;;25.80;63.20;;;;;;5014597;28;20026;-85
2023/12/06 01:11:08;;;;;;;16.33;4.32;;;25.80;62.40;;;;;;5014325;28;20157;-81
2023/12/06 01:13:35;;;;;;;15.77;3.25;;;25.80;62.10;;;;;;5014808;28;20033;-82
2023/12/06 01:16:02;;;;;;;11.75;2.80;;;25.80;61.80;;;;;;5014374;28;20026;-83
2023/12/06 01:18:30;;;;;;;15.43;3.47;;;25.80;61.30;;;;;;5014078;28;20172;-82
2023/12/06 01:20:57;;;;;;;15.88;3.28;;;25.80;61.60;;;;;;5013947;28;20029;-82
2023/12/06 01:23:24;;;;;;;17.10;3.80;;;25.70;61.50;;;;;;5015315;28;20041;-82
2023/12/06 01:25:52;;;;;;;15.82;3.35;;;25.80;62.00;;;;;;5013794;28;20535;-85
2023/12/06 01:28:20;;;;;;;17.80;3.20;;;25.80;61.70;;;;;;5013896;28;20030;-83
2023/12/06 01:30:50;;;;;;;14.93;3.60;;;25.80;61.10;;;;;;5014488;28;20034;-81
2023/12/06 01:33:18;;;;;;;20.58;3.72;;;25.80;60.90;;;;;;5012421;28;20021;-83
2023/12/06 01:35:45;;;;;;;13.63;2.95;;;25.80;61.00;;;;;;5009582;28;20113;-81
2023/12/06 01:38:13;;;;;;;17.08;3.65;;;25.80;61.30;;;;;;5007933;28;20620;-82
2023/12/06 01:40:44;;;;;;;17.90;3.35;;;25.80;61.30;;;;;;5014139;28;20029;-81
2023/12/06 01:43:14;;;;;;;16.80;3.28;;;25.80;61.60;;;;;;5020357;28;20132;-80
2023/12/06 01:45:41;;;;;;;15.55;3.28;;;25.90;61.60;;;;;;5025951;28;20017;-79
2023/12/06 01:48:10;;;;;;;17.40;4.15;;;26.00;61.60;;;;;;5019451;28;20030;-83
2023/12/06 01:50:39;;;;;;;19.25;3.85;;;26.00;61.30;;;;;;5012767;28;20358;-82
2023/12/06 01:53:08;;;;;;;16.30;3.13;;;26.10;61.10;;;;;;5025920;28;20060;-80
2023/12/06 01:55:35;;;;;;;18.98;3.53;;;26.10;61.30;;;;;;5025934;28;20022;-83
2023/12/06 01:58:03;;;;;;;13.98;3.20;;;26.20;61.00;;;;;;5023835;28;20033;-79
2023/12/06 02:00:32;;;;;;;22.30;4.00;;;26.20;60.10;;;;;;5021549;28;20381;-79
2023/12/06 02:03:00;;;;;;;14.00;3.40;;;26.20;59.80;;;;;;5026422;28;20083;-80
2023/12/06 02:05:28;;;;;;;17.17;3.33;;;26.30;60.10;;;;;;5023110;28;20029;-82
2023/12/06 02:07:56;;;;;;;15.73;3.22;;;26.30;59.40;;;;;;5023529;28;20049;-81
2023/12/06 02:10:23;;;;;;;13.25;3.03;;;26.30;59.30;;;;;;5019747;28;20112;-85
2023/12/06 02:12:51;;;;;;;16.15;3.10;;;26.40;59.60;;;;;;5027376;28;20022;-81
2023/12/06 02:15:22;;;;;;;13.55;2.80;;;26.50;59.60;;;;;;5021487;28;20033;-85
2023/12/06 02:17:51;;;;;;;17.42;3.08;;;26.60;59.20;;;;;;5026985;28;20033;-84
2023/12/06 02:20:21;;;;;;;14.65;3.53;;;26.60;58.80;;;;;;5024784;28;20026;-80
2023/12/06 02:22:50;;;;;;;12.18;2.65;;;26.60;58.40;;;;;;5022245;28;20041;-83
2023/12/06 02:25:18;;;;;;;14.65;2.53;;;26.60;59.20;;;;;;5024330;28;20060;-79
2023/12/06 02:27:46;;;;;;;14.73;3.17;;;26.60;59.00;;;;;;5025105;28;20021;-81
2023/12/06 02:30:14;;;;;;;14.65;2.83;;;26.70;58.00;;;;;;5019885;28;20064;-82
2023/12/06 02:32:43;;;;;;;13.80;3.00;;;26.70;57.70;;;;;;5040773;28;20485;-83
2023/12/06 02:35:34;;;;;;;16.65;3.75;;;26.70;57.70;;;;;;5010178;28;20038;-84
2023/12/06 02:38:02;;;;;;;20.85;3.88;;;26.80;57.40;;;;;;5023856;28;20034;-85
2023/12/06 02:40:32;;;;;;;11.73;3.15;;;26.70;57.60;;;;;;5025402;28;20061;-83
2023/12/06 02:43:00;;;;;;;10.13;2.65;;;26.70;57.80;;;;;;5023616;28;20041;-83
2023/12/06 02:45:28;;;;;;;12.23;2.78;;;26.70;57.50;;;;;;5020333;28;20026;-84
2023/12/06 02:47:56;;;;;;;16.90;3.88;;;26.70;56.70;;;;;;5018994;28;20117;-81
2023/12/06 02:50:31;;;;;;;16.00;2.75;;;26.60;56.10;;;;;;5023767;28;20746;-79
2023/12/06 02:52:58;;;;;;;14.10;2.97;;;26.60;56.80;;;;;;5016881;28;20022;-81
2023/12/06 02:55:26;;;;;;;13.35;2.72;;;26.60;56.40;;;;;;5024906;28;20041;-84
2023/12/06 02:57:53;;;;;;;14.30;3.08;;;26.50;55.20;;;;;;5024974;28;20026;-83
2023/12/06 03:00:21;;;;;;;15.45;2.95;;;26.40;55.60;;;;;;5022855;28;20445;-86
2023/12/06 03:02:49;;;;;;;12.05;2.50;;;26.40;55.80;;;;;;5029155;28;20052;-81
2023/12/06 03:05:16;;;;;;;18.23;3.08;;;26.40;55.30;;;;;;5024085;28;20431;-76
2023/12/06 03:07:44;;;;;;;16.08;3.22;;;26.40;55.60;;;;;;5028443;28;20472;-78
2023/12/06 03:10:12;;;;;;;21.17;2.97;;;26.40;56.40;;;;;;5029443;28;20026;-78
2023/12/06 03:12:42;;;;;;;13.25;3.15;;;26.40;56.90;;;;;;5017656;28;20033;-80
2023/12/06 03:15:11;;;;;;;10.63;2.55;;;26.50;57.10;;;;;;5026408;28;20033;-78
2023/12/06 03:17:38;;;;;;;10.45;2.80;;;26.50;54.10;;;;;;5031061;28;20072;-85
2023/12/06 03:20:07;;;;;;;12.00;2.83;;;26.50;54.80;;;;;;5024139;28;20027;-80
2023/12/06 03:22:34;;;;;;;15.70;3.05;;;26.40;56.10;;;;;;5004135;28;20034;-79
2023/12/06 03:25:02;;;;;;;18.50;3.30;;;26.40;57.50;;;;;;5014750;28;20034;-84
2023/12/06 03:27:29;;;;;;;17.27;3.35;;;26.50;57.30;;;;;;5015930;28;20463;-79
2023/12/06 03:29:57;;;;;;;13.68;3.13;;;26.50;56.90;;;;;;5015681;28;20026;-86
2023/12/06 03:32:24;;;;;;;11.57;2.67;;;26.60;57.80;;;;;;5016111;28;20018;-80
2023/12/06 03:34:51;;;;;;;21.85;3.63;;;26.60;57.30;;;;;;5002890;28;20050;-81
2023/12/06 03:37:19;;;;;;;18.40;3.40;;;26.50;57.30;;;;;;4996083;28;20076;-86
2023/12/06 03:39:46;;;;;;;12.35;2.78;;;26.60;58.20;;;;;;5014164;28;20534;-83
2023/12/06 03:42:13;;;;;;;16.88;2.85;;;26.50;58.20;;;;;;5015563;28;20022;-80
2023/12/06 03:44:41;;;;;;;16.90;3.53;;;26.50;58.60;;;;;;5014738;28;20473;-85
2023/12/06 03:47:08;;;;;;;17.45;2.85;;;26.60;58.60;;;;;;5015624;28;20030;-87
2023/12/06 03:49:36;;;;;;;14.57;3.20;;;26.70;58.90;;;;;;5014609;28;20139;-83
2023/12/06 03:52:03;;;;;;;18.00;3.70;;;26.70;57.90;;;;;;5012231;28;20022;-84
2023/12/06 03:54:32;;;;;;;17.95;3.17;;;26.70;58.60;;;;;;5014942;28;20072;-77
2023/12/06 03:56:59;;;;;;;14.40;3.08;;;26.70;58.80;;;;;;5015726;28;20034;-76
2023/12/06 03:59:27;;;;;;;15.50;3.10;;;26.70;58.70;;;;;;5015169;28;20048;-86
2023/12/06 04:01:54;;;;;;;21.45;3.10;;;26.70;59.20;;;;;;5016304;28;20510;-87
2023/12/06 04:04:21;;;;;;;13.13;2.55;;;26.80;59.00;;;;;;5014839;28;20544;-88
2023/12/06 04:06:49;;;;;;;15.57;2.88;;;26.80;58.20;;;;;;5015499;28;20021;-87
2023/12/06 04:09:16;;;;;;;14.35;2.92;;;26.80;58.00;;;;;;5014931;28;20109;-77
2023/12/06 04:11:44;;;;;;;11.70;2.88;;;26.80;58.20;;;;;;5012654;28;20022;-87
2023/12/06 04:14:15;;;;;;;17.25;3.13;;;26.90;58.10;;;;;;5013414;28;20033;-83
2023/12/06 04:16:43;;;;;;;14.90;3.33;;;26.90;58.20;;;;;;5011566;28;20046;-90
2023/12/06 04:19:11;;;;;;;8.60;2.70;;;26.80;57.30;;;;;;5008497;28;20013;-90
2023/12/06 04:21:38;;;;;;;14.85;3.22;;;26.80;58.10;;;;;;5009569;28;20026;-85
2023/12/06 04:24:07;;;;;;;16.95;3.13;;;26.80;58.90;;;;;;5006774;28;20030;-89
2023/12/06 04:26:34;;;;;;;13.32;3.33;;;26.90;58.40;;;;;;5006062;28;20030;-77
2023/12/06 04:29:02;;;;;;;13.23;3.25;;;27.00;58.00;;;;;;5007070;28;20058;-81
2023/12/06 04:31:29;;;;;;;21.55;3.10;;;27.00;57.60;;;;;;5007536;28;20108;-83
2023/12/06 04:33:57;;;;;;;17.15;3.88;;;27.00;56.60;;;;;;5013106;28;20101;-75
2023/12/06 04:36:24;;;;;;;10.90;2.85;;;26.90;57.10;;;;;;5006897;28;20027;-78
2023/12/06 04:38:51;;;;;;;10.85;2.40;;;26.90;57.50;;;;;;5003164;28;20019;-78
2023/12/06 04:41:20;;;;;;;16.60;2.90;;;26.90;57.70;;;;;;5002982;28;20509;-88
2023/12/06 04:43:47;;;;;;;12.15;2.75;;;26.90;57.80;;;;;;5009968;28;20034;-76
2023/12/06 04:46:15;;;;;;;14.30;3.15;;;26.90;58.10;;;;;;5008473;28;20050;-87
2023/12/06 04:48:42;;;;;;;12.52;2.78;;;26.90;57.90;;;;;;5010338;28;20033;-76
2023/12/06 04:51:11;;;;;;;14.40;2.85;;;26.90;57.80;;;;;;5008075;28;20087;-81
2023/12/06 04:53:38;;;;;;;11.88;3.00;;;26.90;57.80;;;;;;5007693;28;20021;-85
2023/12/06 04:56:05;;;;;;;13.52;2.90;;;26.80;58.00;;;;;;5011814;28;20026;-87
2023/12/06 04:58:33;;;;;;;12.63;2.70;;;26.90;58.60;;;;;;5003137;28;20172;-74
2023/12/06 05:01:00;;;;;;;12.00;2.67;;;26.90;58.60;;;;;;5012884;28;20040;-74
2023/12/06 05:03:28;;;;;;;13.10;2.95;;;27.00;59.00;;;;;;5001170;28;20061;-79
2023/12/06 05:05:57;;;;;;;10.30;2.60;;;27.10;58.70;;;;;;5013172;28;20028;-85
2023/12/06 05:08:26;;;;;;;12.75;2.90;;;27.10;58.50;;;;;;5011111;28;20026;-78
2023/12/06 05:10:54;;;;;;;13.93;2.80;;;27.00;57.30;;;;;;5009833;28;20537;-86
2023/12/06 05:13:21;;;;;;;11.05;2.20;;;27.00;57.30;;;;;;5012969;28;20469;-75
2023/12/06 05:15:48;;;;;;;14.63;2.60;;;27.00;57.40;;;;;;5001429;28;20034;-75
2023/12/06 05:18:16;;;;;;;11.93;3.00;;;27.00;57.80;;;;;;5016567;28;20028;-75
2023/12/06 05:20:43;;;;;;;12.38;2.83;;;27.00;57.20;;;;;;5001792;28;20026;-74
2023/12/06 05:23:10;;;;;;;16.25;2.90;;;27.00;57.30;;;;;;5011763;28;20036;-81
2023/12/06 05:25:38;;;;;;;14.68;2.40;;;27.00;57.30;;;;;;5012993;28;20030;-83
2023/12/06 05:28:05;;;;;;;11.32;2.67;;;27.00;57.60;;;;;;5008077;28;20057;-86
2023/12/06 05:30:32;;;;;;;10.77;2.50;;;27.00;57.50;;;;;;5011659;28;20032;-78
2023/12/06 05:33:00;;;;;;;12.15;2.70;;;27.00;57.20;;;;;;5011519;28;20033;-78
2023/12/06 05:35:27;;;;;;;11.23;3.03;;;27.00;57.40;;;;;;5006086;28;20097;-81
2023/12/06 05:37:55;;;;;;;8.70;2.20;;;27.10;57.10;;;;;;5016006;28;20025;-77
2023/12/06 05:40:22;;;;;;;12.40;2.55;;;27.10;57.10;;;;;;5009565;28;20106;-81
2023/12/06 05:42:49;;;;;;;12.70;2.70;;;27.10;57.40;;;;;;5007168;28;20042;-84
2023/12/06 05:45:17;;;;;;;13.38;3.50;;;27.10;57.50;;;;;;5013030;28;20018;-77
2023/12/06 05:47:44;;;;;;;15.40;2.67;;;27.20;57.50;;;;;;5013236;28;20026;-82
2023/12/06 05:50:14;;;;;;;16.85;3.42;;;27.30;57.30;;;;;;5013655;28;20469;-87
2023/12/06 05:52:42;;;;;;;10.90;2.78;;;27.20;55.90;;;;;;5015089;28;20032;-77
2023/12/06 05:55:10;;;;;;;10.40;2.80;;;27.20;57.00;;;;;;5004690;28;20033;-84
2023/12/06 05:57:37;;;;;;;13.80;3.05;;;27.20;57.30;;;;;;5011403;28;20544;-80
2023/12/06 06:00:08;;;;;;;16.80;3.15;;;27.30;56.80;;;;;;5006062;28;20029;-86
2023/12/06 06:02:35;;;;;;;8.20;2.03;;;27.30;56.80;;;;;;5011341;28;20049;-84
2023/12/06 06:05:03;;;;;;;11.48;2.95;;;27.50;56.90;;;;;;5009899;28;20029;-83
2023/12/06 06:07:30;;;;;;;17.15;2.88;;;27.50;57.20;;;;;;5013645;28;20052;-84
2023/12/06 06:09:57;;;;;;;13.60;3.00;;;27.50;55.70;;;;;;5008755;28;20041;-87
2023/12/06 06:12:24;;;;;;;14.70;2.50;;;27.40;55.50;;;;;;5005909;28;20034;-83
2023/12/06 06:14:52;;;;;;;12.88;3.10;;;27.40;56.40;;;;;;5015663;28;20025;-83
2023/12/06 06:17:22;;;;;;;19.25;3.97;;;27.40;56.40;;;;;;5014288;28;20022;-84
2023/12/06 06:19:51;;;;;;;12.35;2.88;;;27.40;56.40;;;;;;5014331;28;20054;-92
2023/12/06 06:22:19;;;;;;;19.73;3.40;;;27.30;57.00;;;;;;5015372;28;20146;-89
2023/12/06 06:24:47;;;;;;;16.13;3.03;;;27.30;56.50;;;;;;5014825;28;20026;-81
2023/12/06 06:27:14;;;;;;;18.48;3.92;;;27.20;56.60;;;;;;5015529;28;20030;-77
2023/12/06 06:29:41;;;;;;;18.23;3.10;;;27.10;57.00;;;;;;5014800;28;20022;-84
2023/12/06 06:32:09;;;;;;;13.20;2.90;;;27.10;56.90;;;;;;5014901;28;20033;-81
2023/12/06 06:34:36;;;;;;;12.77;2.70;;;27.10;57.60;;;;;;5014351;28;20024;-77
2023/12/06 06:37:05;;;;;;;12.15;3.10;;;27.10;57.30;;;;;;5019227;28;20034;-83
2023/12/06 06:39:33;;;;;;;13.18;2.90;;;27.10;57.30;;;;;;5022575;28;20027;-81
2023/12/06 06:42:00;;;;;;;7.10;2.35;;;27.00;57.20;;;;;;5010322;28;20023;-80
2023/12/06 06:44:30;;;;;;;10.27;2.65;;;26.90;57.90;;;;;;5002691;28;20041;-75
2023/12/06 06:46:57;;;;;;;8.93;2.58;;;26.90;58.00;;;;;;5003044;28;20387;-80
2023/12/06 06:49:25;;;;;;;14.50;2.92;;;27.00;57.80;;;;;;5009615;28;20025;-74
2023/12/06 06:51:52;;;;;;;19.52;3.38;;;26.90;57.30;;;;;;5018451;28;20477;-82
2023/12/06 06:54:19;;;;;;;14.35;3.42;;;26.80;57.20;;;;;;5018631;28;20469;-78
2023/12/06 06:56:48;;;;;;;12.48;3.00;;;26.70;57.80;;;;;;5019240;28;20045;-77
2023/12/06 06:59:15;;;;;;;13.88;3.58;;;26.70;58.30;;;;;;5007075;28;20030;-81
2023/12/06 07:01:43;;;;;;;14.77;2.90;;;26.80;58.20;;;;;;4998893;28;20101;-79
2023/12/06 07:04:10;;;;;;;11.18;3.22;;;26.70;58.20;;;;;;5000324;28;20034;-90
2023/12/06 07:06:38;;;;;;;15.80;3.15;;;26.70;58.50;;;;;;5000852;28;20471;-91
2023/12/06 07:09:05;;;;;;;15.15;3.10;;;26.60;58.10;;;;;;5011393;28;20022;-88
2023/12/06 07:11:33;;;;;;;11.32;2.72;;;26.40;58.80;;;;;;5012397;28;20105;-74
2023/12/06 07:14:02;;;;;;;10.93;2.65;;;26.30;59.20;;;;;;5005197;28;20401;-89
2023/12/06 07:16:29;;;;;;;17.63;2.90;;;26.10;59.90;;;;;;5032213;28;20029;-82
2023/12/06 07:18:58;;;;;;;15.45;3.10;;;26.00;60.30;;;;;;5018505;28;20072;-86
2023/12/06 07:21:27;;;;;;;14.20;3.08;;;26.00;60.40;;;;;;5012019;28;20073;-83
2023/12/06 07:23:54;;;;;;;14.25;2.80;;;25.90;60.80;;;;;;4997828;28;20520;-74
2023/12/06 07:26:22;;;;;;;17.95;3.90;;;25.80;61.10;;;;;;4996908;28;20023;-78
2023/12/06 07:28:50;;;;;;;12.45;3.08;;;25.70;61.20;;;;;;4997445;28;20053;-77
2023/12/06 07:31:18;;;;;;;15.07;3.40;;;25.70;61.90;;;;;;4997294;28;20027;-77
2023/12/06 07:33:47;;;;;;;10.60;3.08;;;25.60;61.70;;;;;;5003840;28;20113;-87
2023/12/06 07:36:16;;;;;;;14.50;3.45;;;25.50;61.70;;;;;;5016362;28;20014;-76
2023/12/06 07:38:43;;;;;;;14.48;2.80;;;25.40;62.00;;;;;;5016826;28;20025;-77
2023/12/06 07:41:11;;;;;;;10.80;3.17;;;25.40;62.10;;;;;;5013206;28;20073;-75
2023/12/06 07:43:38;;;;;;;13.88;2.75;;;25.30;61.90;;;;;;5014557;28;20473;-82
2023/12/06 07:46:05;;;;;;;11.18;2.10;;;25.40;62.00;;;;;;5008650;28;20153;-74
2023/12/06 07:48:36;;;;;;;12.00;3.17;;;25.30;62.20;;;;;;5007669;28;20034;-75
2023/12/06 07:51:04;;;;;;;18.83;3.70;;;25.30;62.20;;;;;;5012226;28;20077;-80
2023/12/06 07:53:31;;;;;;;14.68;2.80;;;25.30;62.20;;;;;;5012401;28;20033;-75
2023/12/06 07:56:03;;;;;;;12.93;2.60;;;25.20;62.40;;;;;;5013826;28;20069;-74
2023/12/06 07:58:31;;;;;;;13.20;3.20;;;25.20;62.50;;;;;;5005326;28;20430;-73
2023/12/06 08:00:59;;;;;;;12.73;3.03;;;25.10;62.20;;;;;;5014899;28;20594;-82
2023/12/06 08:03:30;;;;;;;15.88;3.20;;;25.10;62.60;;;;;;5009075;28;20038;-73
2023/12/06 08:05:59;;;;;;;12.65;2.83;;;25.10;62.50;;;;;;5017582;28;20157;-82
2023/12/06 08:08:30;;;;;;;13.95;3.42;;;25.00;62.40;;;;;;5007463;28;20512;-76
2023/12/06 08:10:57;;;;;;;12.05;3.03;;;25.00;62.80;;;;;;5010664;28;20034;-80
2023/12/06 08:13:25;;;;;;;13.52;2.75;;;24.90;62.90;;;;;;5010225;28;20485;-81
2023/12/06 08:15:54;;;;;;;11.85;2.65;;;24.80;62.50;;;;;;5010716;28;20034;-74
2023/12/06 08:18:21;;;;;;;17.42;2.90;;;24.80;62.20;;;;;;5014137;28;20017;-80
2023/12/06 08:20:51;;;;;;;12.98;3.05;;;24.70;62.50;;;;;;5016193;28;20026;-79
2023/12/06 08:23:21;;;;;;;13.38;2.92;;;24.70;62.70;;;;;;5010768;28;20079;-81
2023/12/06 08:25:48;;;;;;;19.38;3.22;;;24.60;62.80;;;;;;5010902;28;20106;-82
2023/12/06 08:28:16;;;;;;;13.57;2.80;;;24.50;63.10;;;;;;5014650;28;20477;-84
2023/12/06 08:30:43;;;;;;;13.05;2.78;;;24.50;63.30;;;;;;5017360;28;20055;-83
2023/12/06 08:33:13;;;;;;;14.30;2.92;;;24.40;63.20;;;;;;5013782;28;20026;-83
2023/12/06 08:35:41;;;;;;;21.70;3.67;;;24.50;63.50;;;;;;5015730;28;20030;-79
2023/12/06 08:38:08;;;;;;;9.90;2.58;;;24.40;63.80;;;;;;5014704;28;20077;-79
2023/12/06 08:40:35;;;;;;;9.50;2.40;;;24.40;64.70;;;;;;5021016;28;20026;-85
2023/12/06 08:43:03;;;;;;;9.57;2.85;;;24.30;64.50;;;;;;5015170;28;20038;-81
2023/12/06 08:45:33;;;;;;;13.07;2.50;;;24.30;64.50;;;;;;5015940;28;20036;-80
2023/12/06 08:48:00;;;;;;;10.27;2.65;;;24.30;64.60;;;;;;5015388;28;20026;-86
2023/12/06 08:50:29;;;;;;;14.32;2.83;;;24.30;65.00;;;;;;5022374;28;20022;-82
2023/12/06 08:52:56;;;;;;;9.93;2.60;;;24.30;64.60;;;;;;5017188;28;20363;-82
2023/12/06 08:55:24;;;;;;;8.63;2.25;;;24.30;64.50;;;;;;5014280;28;20026;-86
2023/12/06 08:57:52;;;;;;;13.20;2.22;;;24.20;64.70;;;;;;5014214;28;20113;-81
2023/12/06 09:00:19;;;;;;;9.93;2.30;;;24.20;65.20;;;;;;5000495;28;20026;-80
2023/12/06 09:02:47;;;;;;;12.95;2.70;;;24.20;65.30;;;;;;4998976;28;20417;-80
2023/12/06 09:05:14;;;;;;;8.45;2.10;;;24.10;65.50;;;;;;5014495;28;20029;-79
2023/12/06 09:07:42;;;;;;;7.90;2.20;;;24.10;65.60;;;;;;5013681;28;20026;-84
2023/12/06 09:10:10;;;;;;;15.18;2.80;;;24.10;65.50;;;;;;5017908;28;20021;-79
2023/12/06 09:12:37;;;;;;;10.07;2.30;;;24.00;65.00;;;;;;5015492;28;20022;-81
2023/12/06 09:15:05;;;;;;;13.00;2.28;;;24.00;66.10;;;;;;5015883;28;20045;-83
2023/12/06 09:17:33;;;;;;;14.50;3.08;;;24.00;65.90;;;;;;5015221;28;20036;-78
2023/12/06 09:20:02;;;;;;;17.52;3.22;;;23.90;65.90;;;;;;5014319;28;20018;-84
2023/12/06 09:22:30;;;;;;;9.52;2.33;;;23.90;66.00;;;;;;5019964;28;20438;-79
2023/12/06 09:24:57;;;;;;;11.98;2.53;;;23.90;66.20;;;;;;5013777;28;20038;-79
2023/12/06 09:27:24;;;;;;;14.75;2.95;;;23.80;65.70;;;;;;5013896;28;20024;-80
2023/12/06 09:29:52;;;;;;;9.35;2.28;;;23.80;66.00;;;;;;5013712;28;20033;-80
2023/12/06 09:32:19;;;;;;;10.98;2.28;;;23.80;66.60;;;;;;5012220;28;20022;-82
2023/12/06 09:34:46;;;;;;;6.45;1.90;;;23.70;67.00;;;;;;5010227;28;20359;-82
2023/12/06 09:37:14;;;;;;;12.63;2.45;;;23.70;67.50;;;;;;5019364;28;20035;-85
2023/12/06 09:39:43;;;;;;;11.88;3.10;;;23.70;67.30;;;;;;5013573;28;20014;-85
2023/12/06 09:42:13;;;;;;;8.40;2.17;;;23.70;66.90;;;;;;5000621;28;20034;-82
2023/12/06 09:44:42;;;;;;;12.02;2.58;;;23.70;67.40;;;;;;5012513;28;20030;-80
2023/12/06 09:47:11;;;;;;;9.55;2.30;;;23.70;67.10;;;;;;5004990;28;20354;-86
2023/12/06 09:49:39;;;;;;;10.55;2.33;;;23.60;66.90;;;;;;5013447;28;20091;-84
2023/12/06 09:52:18;;;;;;;9.90;2.33;;;23.60;67.10;;;;;;5013088;28;20505;-81
2023/12/06 09:54:46;;;;;;;13.60;3.28;;;23.50;67.50;;;;;;5011883;28;20030;-83
2023/12/06 09:57:14;;;;;;;13.45;2.45;;;23.40;67.30;;;;;;5013242;28;20029;-83
2023/12/06 09:59:41;;;;;;;10.32;2.67;;;23.40;67.40;;;;;;5012883;28;20029;-79
2023/12/06 10:02:11;;;;;;;13.32;2.42;;;23.40;67.80;;;;;;5013168;28;20404;-82
2023/12/06 10:04:38;;;;;;;10.30;2.03;;;23.40;68.00;;;;;;5012961;28;20493;-83
2023/12/06 10:07:06;;;;;;;10.48;2.30;;;23.40;68.60;;;;;;5012400;28;20370;-85
2023/12/06 10:09:34;;;;;;;10.02;2.65;;;23.40;68.70;;;;;;5013046;28;20042;-79
2023/12/06 10:12:11;;;;;;;10.95;2.50;;;23.30;68.60;;;;;;5014700;28;20026;-86
2023/12/06 10:14:39;;;;;;;10.98;2.50;;;23.50;69.20;;;;;;5013920;28;20057;-83
2023/12/06 10:17:10;;;;;;;10.95;2.42;;;23.40;69.00;;;;;;5012965;28;20481;-78
2023/12/06 10:19:38;;;;;;;10.90;2.63;;;23.30;68.70;;;;;;5012808;28;20101;-79
2023/12/06 10:22:06;;;;;;;13.90;3.50;;;23.30;68.80;;;;;;5012635;28;20450;-80
2023/12/06 10:24:41;;;;;;;11.75;2.63;;;23.30;69.10;;;;;;5012812;28;20113;-85
2023/12/06 10:27:12;;;;;;;8.57;2.23;;;23.30;69.30;;;;;;5008229;28;20489;-86
2023/12/06 10:29:40;;;;;;;11.93;2.60;;;23.30;69.30;;;;;;4993710;28;20072;-78
2023/12/06 10:32:08;;;;;;;13.05;2.90;;;23.30;68.90;;;;;;4993096;28;20022;-77
2023/12/06 10:34:40;;;;;;;10.18;2.10;;;23.20;69.40;;;;;;5001863;28;20076;-83
2023/12/06 10:37:12;;;;;;;19.40;2.97;;;23.20;69.70;;;;;;5011705;28;20018;-82
2023/12/06 10:39:41;;;;;;;15.00;2.60;;;23.20;70.20;;;;;;5019733;28;20027;-80
2023/12/06 10:42:17;;;;;;;10.68;2.63;;;23.30;70.00;;;;;;5012382;28;20018;-82
2023/12/06 10:44:47;;;;;;;12.77;2.25;;;23.30;69.60;;;;;;5017403;28;20034;-78
2023/12/06 10:47:16;;;;;;;13.38;2.47;;;23.20;69.40;;;;;;5012004;28;20026;-77
2023/12/06 10:49:45;;;;;;;10.05;2.88;;;23.20;70.10;;;;;;5010339;28;20026;-78
2023/12/06 10:52:13;;;;;;;11.40;2.65;;;23.20;69.70;;;;;;5017820;28;20409;-76
2023/12/06 10:54:43;;;;;;;17.05;3.08;;;23.20;69.90;;;;;;5019931;28;20025;-78
2023/12/06 10:57:10;;;;;;;14.65;3.08;;;23.10;69.70;;;;;;5012097;28;20022;-83
2023/12/06 10:59:39;;;;;;;10.23;2.28;;;23.00;69.70;;;;;;5012960;28;20437;-76
2023/12/06 11:02:10;;;;;;;12.85;2.65;;;23.00;70.00;;;;;;5007527;28;20038;-77
2023/12/06 11:04:42;;;;;;;13.48;3.25;;;23.00;70.10;;;;;;5009605;28;20049;-76
2023/12/06 11:07:30;;;;;;;13.82;2.70;;;23.00;71.30;;;;;;5018223;28;20548;-78
2023/12/06 11:10:13;;;;;;;9.27;2.60;;;23.00;70.60;;;;;;5009332;28;20386;-76
2023/12/06 11:12:46;;;;;;;14.70;3.17;;;23.00;71.00;;;;;;5012464;28;20026;-83
2023/12/06 11:15:19;;;;;;;13.82;2.90;;;22.90;71.10;;;;;;5011503;28;20022;-76
2023/12/06 11:17:57;;;;;;;19.05;3.63;;;22.90;70.90;;;;;;5019578;28;20185;-77
2023/12/06 11:20:25;;;;;;;9.98;2.45;;;22.90;70.90;;;;;;5031969;28;20032;-77
2023/12/06 11:22:53;;;;;;;12.18;2.85;;;22.90;71.20;;;;;;5033932;28;20045;-76
2023/12/06 11:25:21;;;;;;;15.90;3.00;;;22.90;71.30;;;;;;5008384;28;20049;-76
2023/12/06 11:27:50;;;;;;;10.02;2.78;;;22.80;71.30;;;;;;5020654;28;20469;-83
2023/12/06 11:30:20;;;;;;;13.98;2.83;;;22.80;71.50;;;;;;5015486;28;20053;-76
2023/12/06 11:32:59;;;;;;;16.25;3.60;;;22.80;71.60;;;;;;5014400;28;20045;-77
2023/12/06 11:35:27;;;;;;;10.35;2.30;;;22.80;71.40;;;;;;4999712;28;20022;-82
2023/12/06 11:37:55;;;;;;;17.70;3.30;;;22.80;72.00;;;;;;4994767;28;20387;-77
2023/12/06 11:40:27;;;;;;;12.45;2.83;;;22.80;71.70;;;;;;4996019;28;20023;-77
2023/12/06 11:43:02;;;;;;;18.95;3.40;;;22.80;72.00;;;;;;4996471;28;20061;-75
2023/12/06 11:45:38;;;;;;;11.77;2.88;;;22.80;71.90;;;;;;5002146;28;20468;-76
2023/12/06 11:48:05;;;;;;;10.60;2.40;;;22.80;72.40;;;;;;5014537;28;20057;-76
2023/12/06 11:51:03;;;;;;;16.88;2.88;;;22.80;72.60;;;;;;5014303;28;20030;-76
2023/12/06 11:53:31;;;;;;;12.25;2.53;;;22.80;72.60;;;;;;5010623;28;20056;-76
2023/12/06 11:55:58;;;;;;;21.27;4.43;;;22.80;72.50;;;;;;5014339;28;20500;-77
2023/12/06 11:58:32;;;;;;;16.30;3.00;;;22.80;72.40;;;;;;5015311;28;20029;-76
2023/12/06 12:01:04;;;;;;;17.08;2.83;;;22.70;72.30;;;;;;5015243;28;20034;-77
2023/12/06 12:03:32;;;;;;;12.88;2.70;;;22.80;72.50;;;;;;5009315;28;20046;-76
2023/12/06 12:05:59;;;;;;;13.05;2.65;;;22.80;73.10;;;;;;5012967;28;20029;-76
2023/12/06 12:08:30;;;;;;;17.13;2.67;;;22.80;73.00;;;;;;5014917;28;20546;-76
2023/12/06 12:10:58;;;;;;;10.05;2.38;;;22.80;73.00;;;;;;5013759;28;20504;-75
2023/12/06 12:13:26;;;;;;;12.75;2.75;;;22.80;73.40;;;;;;5021624;28;20017;-76
2023/12/06 12:16:03;;;;;;;9.68;2.55;;;22.80;73.00;;;;;;5022391;28;20188;-76
2023/12/06 12:18:31;;;;;;;12.55;2.38;;;22.80;72.80;;;;;;5018077;28;20080;-76
2023/12/06 12:20:59;;;;;;;10.27;2.65;;;22.70;72.90;;;;;;5012121;28;20508;-76
2023/12/06 12:23:28;;;;;;;9.63;2.00;;;22.70;73.10;;;;;;5012213;28;20113;-76
2023/12/06 12:25:55;;;;;;;15.00;3.00;;;22.70;73.20;;;;;;4994882;28;20504;-76
2023/12/06 12:28:24;;;;;;;14.10;2.75;;;22.70;73.00;;;;;;5012143;28;20037;-76
2023/12/06 12:31:06;;;;;;;16.92;2.67;;;22.60;72.90;;;;;;5024694;28;20021;-76
2023/12/06 12:33:34;;;;;;;10.75;2.55;;;22.50;73.30;;;;;;5033861;28;20037;-76
2023/12/06 12:36:03;;;;;;;7.60;2.00;;;22.60;73.40;;;;;;5019406;28;20041;-76
2023/12/06 12:38:30;;;;;;;13.32;2.45;;;22.50;73.50;;;;;;5013206;28;20650;-76
2023/12/06 12:40:58;;;;;;;13.20;2.83;;;22.50;73.30;;;;;;5017280;28;20026;-76
2023/12/06 12:43:25;;;;;;;11.10;2.30;;;22.50;73.20;;;;;;5004877;28;20508;-77
2023/12/06 12:45:53;;;;;;;16.75;2.95;;;22.50;73.50;;;;;;5014030;28;20022;-75